Pagrindinis puslapis
METAR-TAF:

METAR-TAF

Oro uostai :

Marakaibas, Venesuela

platuma: 10-34N, ilguma: 071-44W, Aukštis: 66 m

Dabartinis oras

Ataskaita buvo paskelbta 1 valandą ir 29 minutes, ne 22:00 UTC
Vėjas 8 kt iš Šiaurės Rytų
Temperatūra
Slėgis
Matomumas 10 km arba daugiau
Mažai debesys ne aukštis 1300 ft

METAR: SVMC 222200Z 2300/2400 05008KT 9999 FEW013 TX33/19Z TN25/08Z TEMPO 2300/2304 09005KT 9000 -DZ BKN013 FM222300 09006KT 9999 SCT013

Laikas: 19:29 (23:29 UTC)

Prognozė

Ataskaita buvo paskelbta 7 valandos ir 29 minutes, ne 16:00 UTC
Prognozė galioja nuo 22 metu 18 UTC su 23 metu 18 UTC
Vėjas 6 kt iš Vakarų
Matomumas 10 km arba daugiau
Išsisklaidę debesys ne aukštis 1300 ft
Laikinai
nuo 22 metu 18 UTC su 22 metu 22 UTC
Vėjas 7 kt iš Rytų
Matomumas: 9000 m
Su prošvaistėmis ne aukštis 1300 ft
dulksna

TAF: SVMC 221600Z 2218/2318 26006KT 9999 SCT013 TX33/19Z TN24/08Z TEMPO 2218/2222 09007KT 9000 DZ BKN013

Orai ataskaitas ir orų prognozės (METAR, TAF).

turimą stotys yra geltonos ir raudonos taškus žemėlapyje.

Perkelti pele per norėdami pamatyti stoties vardą.

Tada spustelėkite, norėdami matyti oro stebėjimo ir prognozės.

Norėdami pakeisti žemėlapį: spustelėkite ant žalios mygtukų su juodo kryžiaus žemyn,; žalią mygtuką su brūkšneliu, jei norite nutolinti; arba žalių rodyklių gretimoms žemėlapius.


METAR-TAF: